Decoded Metar for CYGW (KUUJJUARARAPIK in QC, CANADA) (IATA:YGW) | Meteo·Mobile Aviation Weather
aviador You're here:

CYGW Decoded Metar

KUUJJUARARAPIK in QC, CANADA
Report Time2018-10-22 06:00:00
UTC Time2018-10-22 06:39:24
Flight Rules vfr VFR
Wind090° at 08 kt
W.Decomp.*RWY 03: 1.8 kt HW 7.8 kt RCW
W.Rank090° ranks 31
Current wind is above 090° avg. (7.7)
Visibility9999 m
Phenomena:N/A
Clouds:N/A
Expected CloudBase > 1,200 ft AGL from Temp-Dew spread
CeilingNone
Temp-7°C (ISA -22)
Dew Point-10°C (79% RH)
AAT-12.9°C
QNH1016 hPa
Density Alt-2,746 ft
Elevation39 ft
Report Wrong Elevation
Raw Report
CYGW 220600Z AUTO 09008KT 9SM CLR M07/M10 A3000 RMK SLP161=

Extra information for CYGW:More info

Metar Taf Metar & Taf Last 4 Metars F.Rules Stats Wind Profile Meteogram Temp Stats Airport Information Weather charts Add Link Nearby VenuesMetar ALERT Operation Metar Decoded Social comments